sensor_id;sensor_type;location;lat;lon;timestamp;P1;durP1;ratioP1;P2;durP2;ratioP2
8048;SDS011;20935;42.660;23.342;2024-01-15T00:02:10;43.77;;;24.10;;
8048;SDS011;20935;42.660;23.342;2024-01-15T00:04:57;44.28;;;24.90;;
8048;SDS011;20935;42.660;23.342;2024-01-15T00:07:44;50.72;;;26.50;;
8048;SDS011;20935;42.660;23.342;2024-01-15T00:10:31;46.43;;;26.17;;
8048;SDS011;20935;42.660;23.342;2024-01-15T00:13:19;49.05;;;25.02;;
8048;SDS011;20935;42.660;23.342;2024-01-15T00:16:06;45.28;;;26.38;;
8048;SDS011;20935;42.660;23.342;2024-01-15T00:18:53;44.90;;;24.30;;
8048;SDS011;20935;42.660;23.342;2024-01-15T00:21:43;46.00;;;23.33;;
8048;SDS011;20935;42.660;23.342;2024-01-15T00:24:30;46.57;;;26.37;;
8048;SDS011;20935;42.660;23.342;2024-01-15T00:27:17;38.65;;;23.10;;
8048;SDS011;20935;42.660;23.342;2024-01-15T00:30:06;43.60;;;25.70;;
8048;SDS011;20935;42.660;23.342;2024-01-15T00:32:52;44.37;;;24.67;;
8048;SDS011;20935;42.660;23.342;2024-01-15T00:35:39;45.95;;;26.00;;
8048;SDS011;20935;42.660;23.342;2024-01-15T00:38:29;47.15;;;25.00;;
8048;SDS011;20935;42.660;23.342;2024-01-15T00:41:16;48.97;;;26.55;;
8048;SDS011;20935;42.660;23.342;2024-01-15T00:44:03;46.88;;;25.13;;
8048;SDS011;20935;42.660;23.342;2024-01-15T00:46:55;48.65;;;25.75;;
8048;SDS011;20935;42.660;23.342;2024-01-15T00:49:41;45.85;;;25.75;;
8048;SDS011;20935;42.660;23.342;2024-01-15T00:52:28;54.20;;;26.88;;
8048;SDS011;20935;42.660;23.342;2024-01-15T00:55:15;52.13;;;25.73;;
8048;SDS011;20935;42.660;23.342;2024-01-15T00:58:02;45.07;;;25.30;;
8048;SDS011;20935;42.660;23.342;2024-01-15T01:00:49;45.10;;;28.25;;
8048;SDS011;20935;42.660;23.342;2024-01-15T01:03:37;47.05;;;26.30;;
8048;SDS011;20935;42.660;23.342;2024-01-15T01:06:24;52.88;;;28.10;;
8048;SDS011;20935;42.660;23.342;2024-01-15T01:09:10;48.65;;;26.17;;
8048;SDS011;20935;42.660;23.342;2024-01-15T01:11:57;54.58;;;28.00;;
8048;SDS011;20935;42.660;23.342;2024-01-15T01:14:44;46.58;;;24.88;;
8048;SDS011;20935;42.660;23.342;2024-01-15T01:17:31;54.00;;;28.70;;
8048;SDS011;20935;42.660;23.342;2024-01-15T01:20:19;52.13;;;27.00;;
8048;SDS011;20935;42.660;23.342;2024-01-15T01:23:06;47.55;;;26.38;;
8048;SDS011;20935;42.660;23.342;2024-01-15T01:25:52;50.80;;;28.23;;
8048;SDS011;20935;42.660;23.342;2024-01-15T01:28:39;46.53;;;28.55;;
8048;SDS011;20935;42.660;23.342;2024-01-15T01:31:26;50.42;;;27.48;;
8048;SDS011;20935;42.660;23.342;2024-01-15T01:34:13;55.00;;;28.38;;
8048;SDS011;20935;42.660;23.342;2024-01-15T01:37:02;59.33;;;30.65;;
8048;SDS011;20935;42.660;23.342;2024-01-15T01:39:49;48.75;;;27.45;;
8048;SDS011;20935;42.660;23.342;2024-01-15T01:42:35;48.00;;;27.33;;
8048;SDS011;20935;42.660;23.342;2024-01-15T01:45:22;48.47;;;26.77;;
8048;SDS011;20935;42.660;23.342;2024-01-15T01:48:09;52.73;;;26.57;;
8048;SDS011;20935;42.660;23.342;2024-01-15T01:50:57;49.53;;;28.35;;
8048;SDS011;20935;42.660;23.342;2024-01-15T01:53:45;59.05;;;29.27;;
8048;SDS011;20935;42.660;23.342;2024-01-15T01:56:32;46.80;;;26.10;;
8048;SDS011;20935;42.660;23.342;2024-01-15T01:59:19;49.22;;;26.15;;
8048;SDS011;20935;42.660;23.342;2024-01-15T02:02:06;43.28;;;24.90;;
8048;SDS011;20935;42.660;23.342;2024-01-15T02:04:56;41.50;;;23.45;;
8048;SDS011;20935;42.660;23.342;2024-01-15T02:07:43;44.65;;;26.70;;
8048;SDS011;20935;42.660;23.342;2024-01-15T02:10:31;45.40;;;26.25;;
8048;SDS011;20935;42.660;23.342;2024-01-15T02:13:18;44.88;;;27.40;;
8048;SDS011;20935;42.660;23.342;2024-01-15T02:16:05;45.80;;;26.33;;
8048;SDS011;20935;42.660;23.342;2024-01-15T02:18:52;43.65;;;25.45;;
8048;SDS011;20935;42.660;23.342;2024-01-15T02:21:39;44.30;;;25.27;;
8048;SDS011;20935;42.660;23.342;2024-01-15T02:24:27;46.25;;;25.70;;
8048;SDS011;20935;42.660;23.342;2024-01-15T02:27:14;47.10;;;24.97;;
8048;SDS011;20935;42.660;23.342;2024-01-15T02:30:01;43.58;;;25.15;;
8048;SDS011;20935;42.660;23.342;2024-01-15T02:32:48;44.83;;;23.67;;
8048;SDS011;20935;42.660;23.342;2024-01-15T02:35:35;42.05;;;23.10;;
8048;SDS011;20935;42.660;23.342;2024-01-15T02:38:23;39.05;;;24.85;;
8048;SDS011;20935;42.660;23.342;2024-01-15T02:41:11;47.57;;;24.57;;
8048;SDS011;20935;42.660;23.342;2024-01-15T02:43:59;42.83;;;23.60;;
8048;SDS011;20935;42.660;23.342;2024-01-15T02:46:46;45.20;;;23.77;;
8048;SDS011;20935;42.660;23.342;2024-01-15T02:49:33;43.22;;;25.60;;
8048;SDS011;20935;42.660;23.342;2024-01-15T02:52:20;44.33;;;24.25;;
8048;SDS011;20935;42.660;23.342;2024-01-15T02:55:06;47.53;;;25.03;;
8048;SDS011;20935;42.660;23.342;2024-01-15T02:57:55;44.85;;;23.35;;
8048;SDS011;20935;42.660;23.342;2024-01-15T03:00:41;39.90;;;21.92;;
8048;SDS011;20935;42.660;23.342;2024-01-15T03:03:29;41.70;;;22.17;;
8048;SDS011;20935;42.660;23.342;2024-01-15T03:06:15;44.33;;;24.83;;
8048;SDS011;20935;42.660;23.342;2024-01-15T03:09:02;41.30;;;22.88;;
8048;SDS011;20935;42.660;23.342;2024-01-15T03:11:49;40.17;;;23.15;;
8048;SDS011;20935;42.660;23.342;2024-01-15T03:14:37;39.40;;;23.42;;
8048;SDS011;20935;42.660;23.342;2024-01-15T03:17:24;41.38;;;22.40;;
8048;SDS011;20935;42.660;23.342;2024-01-15T03:20:11;45.53;;;23.20;;
8048;SDS011;20935;42.660;23.342;2024-01-15T03:22:58;39.58;;;21.50;;
8048;SDS011;20935;42.660;23.342;2024-01-15T03:25:45;39.23;;;23.13;;
8048;SDS011;20935;42.660;23.342;2024-01-15T03:28:31;43.45;;;23.42;;
8048;SDS011;20935;42.660;23.342;2024-01-15T03:31:19;44.22;;;24.90;;
8048;SDS011;20935;42.660;23.342;2024-01-15T03:34:06;43.97;;;22.53;;
8048;SDS011;20935;42.660;23.342;2024-01-15T03:36:53;45.65;;;23.83;;
8048;SDS011;20935;42.660;23.342;2024-01-15T03:39:40;41.55;;;23.83;;
8048;SDS011;20935;42.660;23.342;2024-01-15T03:42:27;43.08;;;25.88;;
8048;SDS011;20935;42.660;23.342;2024-01-15T03:45:13;45.43;;;25.93;;
8048;SDS011;20935;42.660;23.342;2024-01-15T03:48:02;44.80;;;25.53;;
8048;SDS011;20935;42.660;23.342;2024-01-15T03:50:49;41.97;;;25.85;;
8048;SDS011;20935;42.660;23.342;2024-01-15T03:53:35;48.80;;;25.95;;
8048;SDS011;20935;42.660;23.342;2024-01-15T03:56:25;50.20;;;26.65;;
8048;SDS011;20935;42.660;23.342;2024-01-15T03:59:12;46.08;;;27.38;;
8048;SDS011;20935;42.660;23.342;2024-01-15T04:01:59;46.00;;;26.40;;
8048;SDS011;20935;42.660;23.342;2024-01-15T04:04:47;53.83;;;26.80;;
8048;SDS011;20935;42.660;23.342;2024-01-15T04:07:34;98.25;;;40.10;;
8048;SDS011;20935;42.660;23.342;2024-01-15T04:10:23;51.50;;;27.70;;
8048;SDS011;20935;42.660;23.342;2024-01-15T04:13:10;49.77;;;26.83;;
8048;SDS011;20935;42.660;23.342;2024-01-15T04:15:57;49.83;;;25.87;;
8048;SDS011;20935;42.660;23.342;2024-01-15T04:18:44;53.03;;;25.80;;
8048;SDS011;20935;42.660;23.342;2024-01-15T04:21:32;46.47;;;26.05;;
8048;SDS011;20935;42.660;23.342;2024-01-15T04:24:19;44.70;;;24.87;;
8048;SDS011;20935;42.660;23.342;2024-01-15T04:27:06;45.40;;;25.98;;
8048;SDS011;20935;42.660;23.342;2024-01-15T04:29:53;40.45;;;23.60;;
8048;SDS011;20935;42.660;23.342;2024-01-15T04:32:40;42.75;;;25.02;;
8048;SDS011;20935;42.660;23.342;2024-01-15T04:35:27;44.00;;;25.00;;
8048;SDS011;20935;42.660;23.342;2024-01-15T04:38:15;43.72;;;25.20;;
8048;SDS011;20935;42.660;23.342;2024-01-15T04:41:02;44.35;;;25.42;;
8048;SDS011;20935;42.660;23.342;2024-01-15T04:43:49;41.33;;;24.70;;
8048;SDS011;20935;42.660;23.342;2024-01-15T04:46:35;42.83;;;24.65;;
8048;SDS011;20935;42.660;23.342;2024-01-15T04:49:22;38.92;;;25.83;;
8048;SDS011;20935;42.660;23.342;2024-01-15T04:52:11;41.83;;;24.35;;
8048;SDS011;20935;42.660;23.342;2024-01-15T04:54:59;39.90;;;23.48;;
8048;SDS011;20935;42.660;23.342;2024-01-15T04:57:46;42.80;;;24.97;;
8048;SDS011;20935;42.660;23.342;2024-01-15T05:00:33;40.00;;;24.60;;
8048;SDS011;20935;42.660;23.342;2024-01-15T05:03:20;41.85;;;24.88;;
8048;SDS011;20935;42.660;23.342;2024-01-15T05:06:07;41.50;;;24.93;;
8048;SDS011;20935;42.660;23.342;2024-01-15T05:08:54;42.40;;;23.83;;
8048;SDS011;20935;42.660;23.342;2024-01-15T05:11:42;47.65;;;24.80;;
8048;SDS011;20935;42.660;23.342;2024-01-15T05:14:28;38.03;;;21.38;;
8048;SDS011;20935;42.660;23.342;2024-01-15T05:17:15;46.73;;;23.77;;
8048;SDS011;20935;42.660;23.342;2024-01-15T05:20:02;41.25;;;25.50;;
8048;SDS011;20935;42.660;23.342;2024-01-15T05:22:50;43.45;;;24.38;;
8048;SDS011;20935;42.660;23.342;2024-01-15T05:25:36;48.33;;;26.85;;
8048;SDS011;20935;42.660;23.342;2024-01-15T05:28:25;48.10;;;27.20;;
8048;SDS011;20935;42.660;23.342;2024-01-15T05:31:11;42.92;;;25.25;;
8048;SDS011;20935;42.660;23.342;2024-01-15T05:33:58;46.28;;;25.00;;
8048;SDS011;20935;42.660;23.342;2024-01-15T05:36:45;50.42;;;30.40;;
8048;SDS011;20935;42.660;23.342;2024-01-15T05:39:33;48.97;;;27.50;;
8048;SDS011;20935;42.660;23.342;2024-01-15T05:42:20;42.70;;;23.67;;
8048;SDS011;20935;42.660;23.342;2024-01-15T05:45:08;48.92;;;27.23;;
8048;SDS011;20935;42.660;23.342;2024-01-15T05:47:55;50.08;;;26.85;;
8048;SDS011;20935;42.660;23.342;2024-01-15T05:50:42;48.15;;;25.58;;
8048;SDS011;20935;42.660;23.342;2024-01-15T05:53:29;47.28;;;26.38;;
8048;SDS011;20935;42.660;23.342;2024-01-15T05:56:16;51.47;;;27.25;;
8048;SDS011;20935;42.660;23.342;2024-01-15T05:59:03;44.83;;;27.05;;
8048;SDS011;20935;42.660;23.342;2024-01-15T06:01:51;53.10;;;27.15;;
8048;SDS011;20935;42.660;23.342;2024-01-15T06:04:38;47.15;;;26.65;;
8048;SDS011;20935;42.660;23.342;2024-01-15T06:07:24;50.25;;;29.73;;
8048;SDS011;20935;42.660;23.342;2024-01-15T06:10:11;49.45;;;27.65;;
8048;SDS011;20935;42.660;23.342;2024-01-15T06:12:58;56.45;;;29.63;;
8048;SDS011;20935;42.660;23.342;2024-01-15T06:15:45;49.83;;;28.40;;
8048;SDS011;20935;42.660;23.342;2024-01-15T06:18:33;51.03;;;30.90;;
8048;SDS011;20935;42.660;23.342;2024-01-15T06:21:20;55.37;;;31.50;;
8048;SDS011;20935;42.660;23.342;2024-01-15T06:24:07;55.17;;;30.67;;
8048;SDS011;20935;42.660;23.342;2024-01-15T06:26:55;50.37;;;29.97;;
8048;SDS011;20935;42.660;23.342;2024-01-15T06:29:44;71.00;;;39.38;;
8048;SDS011;20935;42.660;23.342;2024-01-15T06:32:31;52.50;;;30.47;;
8048;SDS011;20935;42.660;23.342;2024-01-15T06:35:19;69.30;;;38.47;;
8048;SDS011;20935;42.660;23.342;2024-01-15T06:38:06;73.03;;;38.75;;
8048;SDS011;20935;42.660;23.342;2024-01-15T06:40:53;70.30;;;35.57;;
8048;SDS011;20935;42.660;23.342;2024-01-15T06:43:40;102.40;;;46.33;;
8048;SDS011;20935;42.660;23.342;2024-01-15T06:46:30;107.70;;;48.90;;
8048;SDS011;20935;42.660;23.342;2024-01-15T06:49:17;104.57;;;52.13;;
8048;SDS011;20935;42.660;23.342;2024-01-15T06:52:05;88.57;;;45.63;;
8048;SDS011;20935;42.660;23.342;2024-01-15T06:54:52;99.13;;;47.97;;
8048;SDS011;20935;42.660;23.342;2024-01-15T06:57:39;80.00;;;45.80;;
8048;SDS011;20935;42.660;23.342;2024-01-15T07:00:26;75.00;;;42.33;;
8048;SDS011;20935;42.660;23.342;2024-01-15T07:03:14;78.93;;;44.23;;
8048;SDS011;20935;42.660;23.342;2024-01-15T07:06:01;73.43;;;43.33;;
8048;SDS011;20935;42.660;23.342;2024-01-15T07:08:49;84.97;;;47.87;;
8048;SDS011;20935;42.660;23.342;2024-01-15T07:11:36;80.97;;;47.73;;
8048;SDS011;20935;42.660;23.342;2024-01-15T07:14:23;76.83;;;46.37;;
8048;SDS011;20935;42.660;23.342;2024-01-15T07:17:10;87.07;;;48.70;;
8048;SDS011;20935;42.660;23.342;2024-01-15T07:19:57;82.37;;;45.07;;
8048;SDS011;20935;42.660;23.342;2024-01-15T07:22:43;76.90;;;43.63;;
8048;SDS011;20935;42.660;23.342;2024-01-15T07:25:32;79.77;;;45.97;;
8048;SDS011;20935;42.660;23.342;2024-01-15T07:28:18;78.47;;;45.10;;
8048;SDS011;20935;42.660;23.342;2024-01-15T07:31:05;74.03;;;44.23;;
8048;SDS011;20935;42.660;23.342;2024-01-15T07:33:55;76.70;;;45.37;;
8048;SDS011;20935;42.660;23.342;2024-01-15T07:36:42;71.03;;;45.80;;
8048;SDS011;20935;42.660;23.342;2024-01-15T07:39:28;77.53;;;46.63;;
8048;SDS011;20935;42.660;23.342;2024-01-15T07:42:17;72.70;;;45.33;;
8048;SDS011;20935;42.660;23.342;2024-01-15T07:45:04;74.63;;;43.80;;
8048;SDS011;20935;42.660;23.342;2024-01-15T07:47:51;80.37;;;46.53;;
8048;SDS011;20935;42.660;23.342;2024-01-15T07:50:38;82.10;;;48.00;;
8048;SDS011;20935;42.660;23.342;2024-01-15T07:53:25;82.07;;;46.93;;
8048;SDS011;20935;42.660;23.342;2024-01-15T07:56:12;73.00;;;44.53;;
8048;SDS011;20935;42.660;23.342;2024-01-15T07:59:00;58.00;;;40.83;;
8048;SDS011;20935;42.660;23.342;2024-01-15T08:01:47;65.50;;;37.13;;
8048;SDS011;20935;42.660;23.342;2024-01-15T08:04:34;59.17;;;37.23;;
8048;SDS011;20935;42.660;23.342;2024-01-15T08:07:20;63.00;;;37.33;;
8048;SDS011;20935;42.660;23.342;2024-01-15T08:10:08;47.87;;;32.67;;
8048;SDS011;20935;42.660;23.342;2024-01-15T08:12:54;45.73;;;29.13;;
8048;SDS011;20935;42.660;23.342;2024-01-15T08:15:43;43.67;;;29.40;;
8048;SDS011;20935;42.660;23.342;2024-01-15T08:18:29;47.07;;;31.27;;
8048;SDS011;20935;42.660;23.342;2024-01-15T08:21:16;56.80;;;34.17;;
8048;SDS011;20935;42.660;23.342;2024-01-15T08:24:04;51.00;;;32.20;;
8048;SDS011;20935;42.660;23.342;2024-01-15T08:26:51;49.80;;;30.57;;
8048;SDS011;20935;42.660;23.342;2024-01-15T08:29:38;50.40;;;32.33;;
8048;SDS011;20935;42.660;23.342;2024-01-15T08:32:26;58.83;;;33.93;;
8048;SDS011;20935;42.660;23.342;2024-01-15T08:35:13;56.40;;;36.27;;
8048;SDS011;20935;42.660;23.342;2024-01-15T08:38:01;56.40;;;32.30;;
8048;SDS011;20935;42.660;23.342;2024-01-15T08:40:51;53.93;;;32.93;;
8048;SDS011;20935;42.660;23.342;2024-01-15T08:43:39;53.33;;;30.63;;
8048;SDS011;20935;42.660;23.342;2024-01-15T08:46:26;57.77;;;32.73;;
8048;SDS011;20935;42.660;23.342;2024-01-15T08:49:14;47.43;;;32.83;;
8048;SDS011;20935;42.660;23.342;2024-01-15T08:52:01;46.77;;;30.93;;
8048;SDS011;20935;42.660;23.342;2024-01-15T08:54:48;56.03;;;30.97;;
8048;SDS011;20935;42.660;23.342;2024-01-15T08:57:35;52.87;;;32.87;;
8048;SDS011;20935;42.660;23.342;2024-01-15T09:00:22;53.67;;;32.80;;
8048;SDS011;20935;42.660;23.342;2024-01-15T09:03:11;66.97;;;36.63;;
8048;SDS011;20935;42.660;23.342;2024-01-15T09:05:59;70.00;;;39.10;;
8048;SDS011;20935;42.660;23.342;2024-01-15T09:08:46;70.07;;;37.90;;
8048;SDS011;20935;42.660;23.342;2024-01-15T09:11:33;69.40;;;38.33;;
8048;SDS011;20935;42.660;23.342;2024-01-15T09:14:20;70.53;;;37.77;;
8048;SDS011;20935;42.660;23.342;2024-01-15T09:17:07;70.50;;;38.57;;
8048;SDS011;20935;42.660;23.342;2024-01-15T09:19:54;69.00;;;38.17;;
8048;SDS011;20935;42.660;23.342;2024-01-15T09:22:42;63.97;;;36.47;;
8048;SDS011;20935;42.660;23.342;2024-01-15T09:25:30;57.17;;;33.17;;
8048;SDS011;20935;42.660;23.342;2024-01-15T09:28:19;62.60;;;35.63;;
8048;SDS011;20935;42.660;23.342;2024-01-15T09:31:06;55.03;;;33.73;;
8048;SDS011;20935;42.660;23.342;2024-01-15T09:33:56;58.93;;;33.27;;
8048;SDS011;20935;42.660;23.342;2024-01-15T09:36:44;52.40;;;30.13;;
8048;SDS011;20935;42.660;23.342;2024-01-15T09:39:32;48.47;;;29.50;;
8048;SDS011;20935;42.660;23.342;2024-01-15T09:42:19;55.23;;;31.90;;
8048;SDS011;20935;42.660;23.342;2024-01-15T09:45:07;48.70;;;29.10;;
8048;SDS011;20935;42.660;23.342;2024-01-15T09:47:54;49.73;;;28.53;;
8048;SDS011;20935;42.660;23.342;2024-01-15T09:50:42;55.70;;;31.30;;
8048;SDS011;20935;42.660;23.342;2024-01-15T09:53:29;61.50;;;38.07;;
8048;SDS011;20935;42.660;23.342;2024-01-15T09:56:20;71.60;;;43.13;;
8048;SDS011;20935;42.660;23.342;2024-01-15T09:59:07;80.20;;;46.87;;
8048;SDS011;20935;42.660;23.342;2024-01-15T10:01:52;72.80;;;43.10;;
8048;SDS011;20935;42.660;23.342;2024-01-15T10:04:39;76.57;;;46.13;;
8048;SDS011;20935;42.660;23.342;2024-01-15T10:07:24;76.97;;;42.83;;
8048;SDS011;20935;42.660;23.342;2024-01-15T10:10:12;84.97;;;46.53;;
8048;SDS011;20935;42.660;23.342;2024-01-15T10:13:00;84.30;;;49.20;;
8048;SDS011;20935;42.660;23.342;2024-01-15T10:15:46;94.87;;;51.23;;
8048;SDS011;20935;42.660;23.342;2024-01-15T10:18:31;94.80;;;54.33;;
8048;SDS011;20935;42.660;23.342;2024-01-15T10:21:17;93.67;;;54.43;;
8048;SDS011;20935;42.660;23.342;2024-01-15T10:24:02;94.63;;;54.87;;
8048;SDS011;20935;42.660;23.342;2024-01-15T10:26:50;98.40;;;52.87;;
8048;SDS011;20935;42.660;23.342;2024-01-15T10:29:37;83.97;;;51.67;;
8048;SDS011;20935;42.660;23.342;2024-01-15T10:32:22;86.73;;;50.33;;
8048;SDS011;20935;42.660;23.342;2024-01-15T10:35:08;84.63;;;45.03;;
8048;SDS011;20935;42.660;23.342;2024-01-15T10:37:53;70.03;;;43.73;;
8048;SDS011;20935;42.660;23.342;2024-01-15T10:40:39;71.17;;;44.67;;
8048;SDS011;20935;42.660;23.342;2024-01-15T10:43:26;70.67;;;43.70;;
8048;SDS011;20935;42.660;23.342;2024-01-15T10:46:13;63.87;;;40.03;;
8048;SDS011;20935;42.660;23.342;2024-01-15T10:48:58;63.33;;;36.73;;
8048;SDS011;20935;42.660;23.342;2024-01-15T10:51:44;57.70;;;34.33;;
8048;SDS011;20935;42.660;23.342;2024-01-15T10:54:32;63.13;;;34.57;;
8048;SDS011;20935;42.660;23.342;2024-01-15T10:57:18;55.33;;;32.77;;
8048;SDS011;20935;42.660;23.342;2024-01-15T11:00:05;52.07;;;33.90;;
8048;SDS011;20935;42.660;23.342;2024-01-15T11:02:52;54.40;;;32.60;;
8048;SDS011;20935;42.660;23.342;2024-01-15T11:05:42;50.00;;;32.37;;
8048;SDS011;20935;42.660;23.342;2024-01-15T11:08:28;55.80;;;31.27;;
8048;SDS011;20935;42.660;23.342;2024-01-15T11:11:17;54.13;;;31.33;;
8048;SDS011;20935;42.660;23.342;2024-01-15T11:14:02;54.83;;;31.27;;
8048;SDS011;20935;42.660;23.342;2024-01-15T11:16:54;66.40;;;35.23;;
8048;SDS011;20935;42.660;23.342;2024-01-15T11:19:44;56.30;;;31.43;;
8048;SDS011;20935;42.660;23.342;2024-01-15T11:25:43;48.03;;;28.10;;
8048;SDS011;20935;42.660;23.342;2024-01-15T11:31:29;41.53;;;25.47;;
8048;SDS011;20935;42.660;23.342;2024-01-15T11:34:15;42.20;;;27.17;;
8048;SDS011;20935;42.660;23.342;2024-01-15T11:37:04;34.10;;;18.90;;
8048;SDS011;20935;42.660;23.342;2024-01-15T11:39:53;29.60;;;17.63;;
8048;SDS011;20935;42.660;23.342;2024-01-15T11:42:38;33.80;;;20.10;;
8048;SDS011;20935;42.660;23.342;2024-01-15T11:45:24;38.73;;;22.27;;
8048;SDS011;20935;42.660;23.342;2024-01-15T11:48:10;31.73;;;18.83;;
8048;SDS011;20935;42.660;23.342;2024-01-15T11:50:59;34.63;;;19.13;;
8048;SDS011;20935;42.660;23.342;2024-01-15T11:53:47;28.17;;;19.67;;
8048;SDS011;20935;42.660;23.342;2024-01-15T11:56:33;30.10;;;20.03;;
8048;SDS011;20935;42.660;23.342;2024-01-15T11:59:18;31.93;;;20.17;;
8048;SDS011;20935;42.660;23.342;2024-01-15T12:02:04;29.67;;;18.23;;
8048;SDS011;20935;42.660;23.342;2024-01-15T12:04:49;29.60;;;20.03;;
8048;SDS011;20935;42.660;23.342;2024-01-15T12:07:35;30.03;;;18.47;;
8048;SDS011;20935;42.660;23.342;2024-01-15T12:10:24;28.53;;;18.60;;
8048;SDS011;20935;42.660;23.342;2024-01-15T12:13:10;30.43;;;18.53;;
8048;SDS011;20935;42.660;23.342;2024-01-15T12:15:56;33.30;;;19.83;;
8048;SDS011;20935;42.660;23.342;2024-01-15T12:18:42;34.60;;;19.57;;
8048;SDS011;20935;42.660;23.342;2024-01-15T12:21:27;33.30;;;20.93;;
8048;SDS011;20935;42.660;23.342;2024-01-15T12:24:16;34.93;;;21.53;;
8048;SDS011;20935;42.660;23.342;2024-01-15T12:27:03;34.87;;;19.40;;
8048;SDS011;20935;42.660;23.342;2024-01-15T12:29:49;33.63;;;21.03;;
8048;SDS011;20935;42.660;23.342;2024-01-15T12:32:34;35.97;;;20.00;;
8048;SDS011;20935;42.660;23.342;2024-01-15T12:35:19;36.27;;;19.33;;
8048;SDS011;20935;42.660;23.342;2024-01-15T12:38:05;28.23;;;18.57;;
8048;SDS011;20935;42.660;23.342;2024-01-15T12:40:50;29.00;;;18.03;;
8048;SDS011;20935;42.660;23.342;2024-01-15T12:43:40;30.50;;;18.83;;
8048;SDS011;20935;42.660;23.342;2024-01-15T12:46:26;27.50;;;17.67;;
8048;SDS011;20935;42.660;23.342;2024-01-15T12:49:14;30.80;;;18.40;;
8048;SDS011;20935;42.660;23.342;2024-01-15T12:52:00;30.47;;;19.40;;
8048;SDS011;20935;42.660;23.342;2024-01-15T12:54:48;28.27;;;18.80;;
8048;SDS011;20935;42.660;23.342;2024-01-15T12:57:34;34.70;;;20.03;;
8048;SDS011;20935;42.660;23.342;2024-01-15T13:00:21;30.40;;;19.57;;
8048;SDS011;20935;42.660;23.342;2024-01-15T13:03:09;28.50;;;18.87;;
8048;SDS011;20935;42.660;23.342;2024-01-15T13:05:56;35.87;;;19.17;;
8048;SDS011;20935;42.660;23.342;2024-01-15T13:08:43;34.93;;;18.83;;
8048;SDS011;20935;42.660;23.342;2024-01-15T13:11:33;33.10;;;19.50;;
8048;SDS011;20935;42.660;23.342;2024-01-15T13:14:22;32.90;;;19.13;;
8048;SDS011;20935;42.660;23.342;2024-01-15T13:17:11;27.57;;;17.37;;
8048;SDS011;20935;42.660;23.342;2024-01-15T13:19:58;33.10;;;18.70;;
8048;SDS011;20935;42.660;23.342;2024-01-15T13:22:45;40.83;;;18.87;;
8048;SDS011;20935;42.660;23.342;2024-01-15T13:25:32;32.20;;;19.57;;
8048;SDS011;20935;42.660;23.342;2024-01-15T13:28:19;31.53;;;19.40;;
8048;SDS011;20935;42.660;23.342;2024-01-15T13:31:06;29.83;;;17.57;;
8048;SDS011;20935;42.660;23.342;2024-01-15T13:33:55;28.77;;;19.53;;
8048;SDS011;20935;42.660;23.342;2024-01-15T13:36:42;35.40;;;20.87;;
8048;SDS011;20935;42.660;23.342;2024-01-15T13:39:29;32.93;;;18.10;;
8048;SDS011;20935;42.660;23.342;2024-01-15T13:42:21;34.03;;;19.70;;
8048;SDS011;20935;42.660;23.342;2024-01-15T13:45:08;36.97;;;21.60;;
8048;SDS011;20935;42.660;23.342;2024-01-15T13:47:58;37.53;;;21.17;;
8048;SDS011;20935;42.660;23.342;2024-01-15T13:50:46;37.13;;;20.87;;
8048;SDS011;20935;42.660;23.342;2024-01-15T13:53:33;37.53;;;20.13;;
8048;SDS011;20935;42.660;23.342;2024-01-15T13:56:20;32.43;;;19.73;;
8048;SDS011;20935;42.660;23.342;2024-01-15T13:59:10;37.93;;;20.57;;
8048;SDS011;20935;42.660;23.342;2024-01-15T14:01:57;30.93;;;19.27;;
8048;SDS011;20935;42.660;23.342;2024-01-15T14:04:44;36.07;;;20.20;;
8048;SDS011;20935;42.660;23.342;2024-01-15T14:07:32;29.07;;;19.93;;
8048;SDS011;20935;42.660;23.342;2024-01-15T14:10:19;33.43;;;20.13;;
8048;SDS011;20935;42.660;23.342;2024-01-15T14:13:06;37.17;;;19.73;;
8048;SDS011;20935;42.660;23.342;2024-01-15T14:15:54;32.10;;;21.43;;
8048;SDS011;20935;42.660;23.342;2024-01-15T14:18:41;30.40;;;20.63;;
8048;SDS011;20935;42.660;23.342;2024-01-15T14:21:28;33.80;;;20.43;;
8048;SDS011;20935;42.660;23.342;2024-01-15T14:24:16;31.93;;;18.90;;
8048;SDS011;20935;42.660;23.342;2024-01-15T14:27:04;36.20;;;22.07;;
8048;SDS011;20935;42.660;23.342;2024-01-15T14:29:52;32.73;;;20.37;;
8048;SDS011;20935;42.660;23.342;2024-01-15T14:32:39;40.37;;;22.10;;
8048;SDS011;20935;42.660;23.342;2024-01-15T14:35:26;37.63;;;21.47;;
8048;SDS011;20935;42.660;23.342;2024-01-15T14:38:13;37.97;;;21.93;;
8048;SDS011;20935;42.660;23.342;2024-01-15T14:41:04;35.57;;;22.67;;
8048;SDS011;20935;42.660;23.342;2024-01-15T14:43:51;35.27;;;21.30;;
8048;SDS011;20935;42.660;23.342;2024-01-15T14:46:38;36.33;;;21.83;;
8048;SDS011;20935;42.660;23.342;2024-01-15T14:49:25;37.97;;;21.77;;
8048;SDS011;20935;42.660;23.342;2024-01-15T14:52:12;33.00;;;21.53;;
8048;SDS011;20935;42.660;23.342;2024-01-15T14:54:59;34.20;;;20.90;;
8048;SDS011;20935;42.660;23.342;2024-01-15T14:57:47;43.20;;;24.57;;
8048;SDS011;20935;42.660;23.342;2024-01-15T15:00:34;42.27;;;21.83;;
8048;SDS011;20935;42.660;23.342;2024-01-15T15:03:21;36.73;;;22.27;;
8048;SDS011;20935;42.660;23.342;2024-01-15T15:06:08;42.10;;;23.37;;
8048;SDS011;20935;42.660;23.342;2024-01-15T15:08:58;39.10;;;22.27;;
8048;SDS011;20935;42.660;23.342;2024-01-15T15:11:46;38.07;;;21.33;;
8048;SDS011;20935;42.660;23.342;2024-01-15T15:14:37;38.20;;;21.60;;
8048;SDS011;20935;42.660;23.342;2024-01-15T15:17:24;37.47;;;22.17;;
8048;SDS011;20935;42.660;23.342;2024-01-15T15:20:11;32.47;;;20.23;;
8048;SDS011;20935;42.660;23.342;2024-01-15T15:22:58;36.70;;;22.00;;
8048;SDS011;20935;42.660;23.342;2024-01-15T15:25:45;41.23;;;24.07;;
8048;SDS011;20935;42.660;23.342;2024-01-15T15:28:32;42.57;;;24.10;;
8048;SDS011;20935;42.660;23.342;2024-01-15T15:31:23;42.87;;;24.73;;
8048;SDS011;20935;42.660;23.342;2024-01-15T15:34:10;41.57;;;21.57;;
8048;SDS011;20935;42.660;23.342;2024-01-15T15:36:56;36.33;;;22.67;;
8048;SDS011;20935;42.660;23.342;2024-01-15T15:39:43;40.63;;;22.00;;
8048;SDS011;20935;42.660;23.342;2024-01-15T15:42:30;36.93;;;22.77;;
8048;SDS011;20935;42.660;23.342;2024-01-15T15:45:17;38.23;;;22.47;;
8048;SDS011;20935;42.660;23.342;2024-01-15T15:48:06;38.70;;;23.07;;
8048;SDS011;20935;42.660;23.342;2024-01-15T15:50:53;37.80;;;22.43;;
8048;SDS011;20935;42.660;23.342;2024-01-15T15:53:40;38.13;;;23.33;;
8048;SDS011;20935;42.660;23.342;2024-01-15T15:56:27;43.50;;;22.83;;
8048;SDS011;20935;42.660;23.342;2024-01-15T15:59:18;40.13;;;23.67;;
8048;SDS011;20935;42.660;23.342;2024-01-15T16:02:06;40.93;;;23.73;;
8048;SDS011;20935;42.660;23.342;2024-01-15T16:04:55;43.87;;;24.10;;
8048;SDS011;20935;42.660;23.342;2024-01-15T16:07:43;41.57;;;23.77;;
8048;SDS011;20935;42.660;23.342;2024-01-15T16:10:39;46.20;;;23.83;;
8048;SDS011;20935;42.660;23.342;2024-01-15T16:13:26;34.47;;;22.23;;
8048;SDS011;20935;42.660;23.342;2024-01-15T16:16:19;43.10;;;23.30;;
8048;SDS011;20935;42.660;23.342;2024-01-15T16:19:07;36.90;;;24.00;;
8048;SDS011;20935;42.660;23.342;2024-01-15T16:21:55;42.47;;;25.57;;
8048;SDS011;20935;42.660;23.342;2024-01-15T16:24:42;49.97;;;27.37;;